sensor_id;sensor_type;location;lat;lon;timestamp;temperature;humidity
5226;DHT22;2632;51.666;7.146;2023-06-04T00:00:21;13.30;79.30
5226;DHT22;2632;51.666;7.146;2023-06-04T00:02:48;13.50;80.60
5226;DHT22;2632;51.666;7.146;2023-06-04T00:05:14;13.20;81.30
5226;DHT22;2632;51.666;7.146;2023-06-04T00:07:41;13.20;88.10
5226;DHT22;2632;51.666;7.146;2023-06-04T00:10:08;13.20;84.00
5226;DHT22;2632;51.666;7.146;2023-06-04T00:12:35;13.20;86.10
5226;DHT22;2632;51.666;7.146;2023-06-04T00:15:02;13.20;88.10
5226;DHT22;2632;51.666;7.146;2023-06-04T00:17:29;13.30;89.20
5226;DHT22;2632;51.666;7.146;2023-06-04T00:19:56;13.20;89.70
5226;DHT22;2632;51.666;7.146;2023-06-04T00:22:22;13.20;91.20
5226;DHT22;2632;51.666;7.146;2023-06-04T00:24:50;13.20;92.30
5226;DHT22;2632;51.666;7.146;2023-06-04T00:27:16;13.20;93.00
5226;DHT22;2632;51.666;7.146;2023-06-04T00:29:43;13.20;93.00
5226;DHT22;2632;51.666;7.146;2023-06-04T00:32:10;13.00;94.80
5226;DHT22;2632;51.666;7.146;2023-06-04T00:34:37;13.00;95.10
5226;DHT22;2632;51.666;7.146;2023-06-04T00:37:03;13.10;95.40
5226;DHT22;2632;51.666;7.146;2023-06-04T00:39:30;13.10;96.40
5226;DHT22;2632;51.666;7.146;2023-06-04T00:41:57;13.10;96.90
5226;DHT22;2632;51.666;7.146;2023-06-04T00:44:24;13.10;97.10
5226;DHT22;2632;51.666;7.146;2023-06-04T00:46:52;13.00;97.30
5226;DHT22;2632;51.666;7.146;2023-06-04T00:49:20;13.00;97.20
5226;DHT22;2632;51.666;7.146;2023-06-04T00:51:47;13.00;98.40
5226;DHT22;2632;51.666;7.146;2023-06-04T00:54:14;13.00;98.70
5226;DHT22;2632;51.666;7.146;2023-06-04T00:56:42;12.90;98.90
5226;DHT22;2632;51.666;7.146;2023-06-04T00:59:09;13.00;99.70
5226;DHT22;2632;51.666;7.146;2023-06-04T01:01:53;12.90;99.90
5226;DHT22;2632;51.666;7.146;2023-06-04T01:04:27;12.80;99.90
5226;DHT22;2632;51.666;7.146;2023-06-04T01:06:57;12.90;99.70
5226;DHT22;2632;51.666;7.146;2023-06-04T01:09:26;12.90;99.90
5226;DHT22;2632;51.666;7.146;2023-06-04T01:11:54;14.30;99.90
5226;DHT22;2632;51.666;7.146;2023-06-04T01:14:24;12.70;99.90
5226;DHT22;2632;51.666;7.146;2023-06-04T01:16:56;12.90;99.90
5226;DHT22;2632;51.666;7.146;2023-06-04T01:19:51;12.90;99.20
5226;DHT22;2632;51.666;7.146;2023-06-04T01:25:02;12.80;99.60
5226;DHT22;2632;51.666;7.146;2023-06-04T01:27:30;12.70;99.90
5226;DHT22;2632;51.666;7.146;2023-06-04T01:29:59;12.70;99.90
5226;DHT22;2632;51.666;7.146;2023-06-04T01:32:27;12.80;99.90
5226;DHT22;2632;51.666;7.146;2023-06-04T01:34:54;12.80;99.90
5226;DHT22;2632;51.666;7.146;2023-06-04T01:37:21;12.80;99.90
5226;DHT22;2632;51.666;7.146;2023-06-04T01:39:48;12.80;99.90
5226;DHT22;2632;51.666;7.146;2023-06-04T01:42:14;12.80;99.90
5226;DHT22;2632;51.666;7.146;2023-06-04T01:44:41;12.90;99.90
5226;DHT22;2632;51.666;7.146;2023-06-04T01:47:08;12.80;99.90
5226;DHT22;2632;51.666;7.146;2023-06-04T01:49:34;12.80;99.90
5226;DHT22;2632;51.666;7.146;2023-06-04T01:52:01;12.80;99.90
5226;DHT22;2632;51.666;7.146;2023-06-04T01:54:28;12.80;99.90
5226;DHT22;2632;51.666;7.146;2023-06-04T01:56:56;12.70;99.90
5226;DHT22;2632;51.666;7.146;2023-06-04T01:59:23;12.70;99.90
5226;DHT22;2632;51.666;7.146;2023-06-04T02:01:49;12.60;99.90
5226;DHT22;2632;51.666;7.146;2023-06-04T02:04:16;12.70;99.90
5226;DHT22;2632;51.666;7.146;2023-06-04T02:06:43;12.60;99.90
5226;DHT22;2632;51.666;7.146;2023-06-04T02:09:09;12.50;99.90
5226;DHT22;2632;51.666;7.146;2023-06-04T02:11:36;12.50;99.90
5226;DHT22;2632;51.666;7.146;2023-06-04T02:14:02;12.50;99.90
5226;DHT22;2632;51.666;7.146;2023-06-04T02:16:29;12.50;99.90
5226;DHT22;2632;51.666;7.146;2023-06-04T02:18:56;12.50;99.90
5226;DHT22;2632;51.666;7.146;2023-06-04T02:21:23;12.50;99.90
5226;DHT22;2632;51.666;7.146;2023-06-04T02:23:49;12.50;99.90
5226;DHT22;2632;51.666;7.146;2023-06-04T02:26:16;12.40;99.90
5226;DHT22;2632;51.666;7.146;2023-06-04T02:28:44;12.40;99.90
5226;DHT22;2632;51.666;7.146;2023-06-04T02:31:10;12.40;99.90
5226;DHT22;2632;51.666;7.146;2023-06-04T02:33:37;12.40;99.90
5226;DHT22;2632;51.666;7.146;2023-06-04T02:36:04;12.40;99.90
5226;DHT22;2632;51.666;7.146;2023-06-04T02:38:31;12.40;99.90
5226;DHT22;2632;51.666;7.146;2023-06-04T02:40:58;12.30;99.90
5226;DHT22;2632;51.666;7.146;2023-06-04T02:43:25;12.20;99.90
5226;DHT22;2632;51.666;7.146;2023-06-04T02:45:51;12.20;99.90
5226;DHT22;2632;51.666;7.146;2023-06-04T02:48:18;12.00;99.90
5226;DHT22;2632;51.666;7.146;2023-06-04T02:50:45;12.10;99.90
5226;DHT22;2632;51.666;7.146;2023-06-04T02:53:12;12.20;99.90
5226;DHT22;2632;51.666;7.146;2023-06-04T02:55:38;12.10;99.90
5226;DHT22;2632;51.666;7.146;2023-06-04T02:58:06;12.10;99.90
5226;DHT22;2632;51.666;7.146;2023-06-04T03:00:33;12.20;99.90
5226;DHT22;2632;51.666;7.146;2023-06-04T03:03:00;12.20;99.90
5226;DHT22;2632;51.666;7.146;2023-06-04T03:05:29;12.00;99.90
5226;DHT22;2632;51.666;7.146;2023-06-04T03:08:00;12.00;99.90
5226;DHT22;2632;51.666;7.146;2023-06-04T03:10:27;12.00;99.90
5226;DHT22;2632;51.666;7.146;2023-06-04T03:12:53;11.80;99.90
5226;DHT22;2632;51.666;7.146;2023-06-04T03:15:20;11.80;99.90
5226;DHT22;2632;51.666;7.146;2023-06-04T03:17:46;11.80;99.90
5226;DHT22;2632;51.666;7.146;2023-06-04T03:20:13;11.70;99.90
5226;DHT22;2632;51.666;7.146;2023-06-04T03:22:40;11.70;99.90
5226;DHT22;2632;51.666;7.146;2023-06-04T03:25:07;11.60;99.90
5226;DHT22;2632;51.666;7.146;2023-06-04T03:27:34;11.70;99.90
5226;DHT22;2632;51.666;7.146;2023-06-04T03:30:01;11.60;99.90
5226;DHT22;2632;51.666;7.146;2023-06-04T03:32:28;11.50;99.90
5226;DHT22;2632;51.666;7.146;2023-06-04T03:34:55;11.50;99.90
5226;DHT22;2632;51.666;7.146;2023-06-04T03:37:22;11.40;99.90
5226;DHT22;2632;51.666;7.146;2023-06-04T03:39:48;11.40;99.90
5226;DHT22;2632;51.666;7.146;2023-06-04T03:42:15;11.40;99.90
5226;DHT22;2632;51.666;7.146;2023-06-04T03:44:42;11.40;99.90
5226;DHT22;2632;51.666;7.146;2023-06-04T03:47:08;11.50;99.90
5226;DHT22;2632;51.666;7.146;2023-06-04T03:49:35;11.50;99.90
5226;DHT22;2632;51.666;7.146;2023-06-04T03:52:02;11.40;99.90
5226;DHT22;2632;51.666;7.146;2023-06-04T03:54:28;11.50;99.90
5226;DHT22;2632;51.666;7.146;2023-06-04T03:56:55;11.40;99.90
5226;DHT22;2632;51.666;7.146;2023-06-04T03:59:22;11.40;99.90
5226;DHT22;2632;51.666;7.146;2023-06-04T04:01:48;11.80;99.90
5226;DHT22;2632;51.666;7.146;2023-06-04T04:04:15;11.50;99.90
5226;DHT22;2632;51.666;7.146;2023-06-04T04:06:42;11.60;99.90
5226;DHT22;2632;51.666;7.146;2023-06-04T04:09:08;11.50;99.90
5226;DHT22;2632;51.666;7.146;2023-06-04T04:11:35;11.60;99.90
5226;DHT22;2632;51.666;7.146;2023-06-04T04:14:02;11.60;99.90
5226;DHT22;2632;51.666;7.146;2023-06-04T04:16:28;11.60;99.90
5226;DHT22;2632;51.666;7.146;2023-06-04T04:18:55;11.70;99.90
5226;DHT22;2632;51.666;7.146;2023-06-04T04:21:22;11.70;99.90
5226;DHT22;2632;51.666;7.146;2023-06-04T04:23:50;11.70;99.90
5226;DHT22;2632;51.666;7.146;2023-06-04T04:26:17;11.80;99.90
5226;DHT22;2632;51.666;7.146;2023-06-04T04:28:44;11.70;99.90
5226;DHT22;2632;51.666;7.146;2023-06-04T04:31:11;11.80;99.90
5226;DHT22;2632;51.666;7.146;2023-06-04T04:33:38;11.90;99.90
5226;DHT22;2632;51.666;7.146;2023-06-04T04:36:06;11.90;99.90
5226;DHT22;2632;51.666;7.146;2023-06-04T04:38:36;12.20;99.90
5226;DHT22;2632;51.666;7.146;2023-06-04T04:41:03;12.00;99.90
5226;DHT22;2632;51.666;7.146;2023-06-04T04:43:32;12.40;99.90
5226;DHT22;2632;51.666;7.146;2023-06-04T04:45:59;12.00;99.90
5226;DHT22;2632;51.666;7.146;2023-06-04T04:48:26;12.10;99.90
5226;DHT22;2632;51.666;7.146;2023-06-04T04:50:53;12.10;99.90
5226;DHT22;2632;51.666;7.146;2023-06-04T04:53:20;12.20;99.90
5226;DHT22;2632;51.666;7.146;2023-06-04T04:55:47;12.30;99.90
5226;DHT22;2632;51.666;7.146;2023-06-04T04:58:14;12.40;99.90
5226;DHT22;2632;51.666;7.146;2023-06-04T05:00:40;12.50;99.90
5226;DHT22;2632;51.666;7.146;2023-06-04T05:03:07;12.50;99.90
5226;DHT22;2632;51.666;7.146;2023-06-04T05:05:34;12.70;99.90
5226;DHT22;2632;51.666;7.146;2023-06-04T05:08:01;12.60;99.90
5226;DHT22;2632;51.666;7.146;2023-06-04T05:10:27;12.60;99.90
5226;DHT22;2632;51.666;7.146;2023-06-04T05:12:58;12.70;99.90
5226;DHT22;2632;51.666;7.146;2023-06-04T05:15:26;12.70;99.90
5226;DHT22;2632;51.666;7.146;2023-06-04T05:17:53;12.80;99.90
5226;DHT22;2632;51.666;7.146;2023-06-04T05:20:20;12.80;99.90
5226;DHT22;2632;51.666;7.146;2023-06-04T05:22:48;12.80;99.90
5226;DHT22;2632;51.666;7.146;2023-06-04T05:25:16;12.90;99.90
5226;DHT22;2632;51.666;7.146;2023-06-04T05:27:43;13.00;99.90
5226;DHT22;2632;51.666;7.146;2023-06-04T05:30:10;13.10;99.90
5226;DHT22;2632;51.666;7.146;2023-06-04T05:32:37;13.10;99.90
5226;DHT22;2632;51.666;7.146;2023-06-04T05:35:08;13.10;99.90
5226;DHT22;2632;51.666;7.146;2023-06-04T05:37:35;13.20;99.90
5226;DHT22;2632;51.666;7.146;2023-06-04T05:40:04;13.20;99.90
5226;DHT22;2632;51.666;7.146;2023-06-04T05:42:32;13.30;99.90
5226;DHT22;2632;51.666;7.146;2023-06-04T05:44:58;13.30;99.90
5226;DHT22;2632;51.666;7.146;2023-06-04T05:47:26;13.40;99.90
5226;DHT22;2632;51.666;7.146;2023-06-04T05:49:55;13.50;99.90
5226;DHT22;2632;51.666;7.146;2023-06-04T05:52:22;13.50;99.90
5226;DHT22;2632;51.666;7.146;2023-06-04T05:54:49;13.50;99.90
5226;DHT22;2632;51.666;7.146;2023-06-04T05:57:15;13.60;99.80
5226;DHT22;2632;51.666;7.146;2023-06-04T05:59:42;13.60;99.50
5226;DHT22;2632;51.666;7.146;2023-06-04T06:02:09;13.60;99.10
5226;DHT22;2632;51.666;7.146;2023-06-04T06:04:35;13.70;98.70
5226;DHT22;2632;51.666;7.146;2023-06-04T06:07:03;13.80;97.80
5226;DHT22;2632;51.666;7.146;2023-06-04T06:09:30;13.80;97.20
5226;DHT22;2632;51.666;7.146;2023-06-04T06:11:56;13.70;96.80
5226;DHT22;2632;51.666;7.146;2023-06-04T06:14:24;13.80;97.10
5226;DHT22;2632;51.666;7.146;2023-06-04T06:16:51;14.20;96.90
5226;DHT22;2632;51.666;7.146;2023-06-04T06:19:19;14.10;96.40
5226;DHT22;2632;51.666;7.146;2023-06-04T06:21:46;14.20;96.30
5226;DHT22;2632;51.666;7.146;2023-06-04T06:24:12;14.20;96.70
5226;DHT22;2632;51.666;7.146;2023-06-04T06:26:39;14.30;95.50
5226;DHT22;2632;51.666;7.146;2023-06-04T06:29:06;14.40;95.20
5226;DHT22;2632;51.666;7.146;2023-06-04T06:31:33;14.40;94.60
5226;DHT22;2632;51.666;7.146;2023-06-04T06:34:00;14.50;93.00
5226;DHT22;2632;51.666;7.146;2023-06-04T06:36:26;14.60;93.80
5226;DHT22;2632;51.666;7.146;2023-06-04T06:38:55;14.70;94.60
5226;DHT22;2632;51.666;7.146;2023-06-04T06:41:21;15.20;94.50
5226;DHT22;2632;51.666;7.146;2023-06-04T06:43:48;15.10;92.40
5226;DHT22;2632;51.666;7.146;2023-06-04T06:46:15;15.10;92.00
5226;DHT22;2632;51.666;7.146;2023-06-04T06:48:41;15.10;92.30
5226;DHT22;2632;51.666;7.146;2023-06-04T06:51:11;15.30;90.10
5226;DHT22;2632;51.666;7.146;2023-06-04T06:53:38;15.30;90.00
5226;DHT22;2632;51.666;7.146;2023-06-04T06:56:06;15.40;90.40
5226;DHT22;2632;51.666;7.146;2023-06-04T06:58:33;15.40;85.80
5226;DHT22;2632;51.666;7.146;2023-06-04T07:01:00;15.70;88.00
5226;DHT22;2632;51.666;7.146;2023-06-04T07:05:54;15.70;86.30
5226;DHT22;2632;51.666;7.146;2023-06-04T07:08:21;15.70;87.10
5226;DHT22;2632;51.666;7.146;2023-06-04T07:10:48;15.80;87.30
5226;DHT22;2632;51.666;7.146;2023-06-04T07:13:14;16.00;88.70
5226;DHT22;2632;51.666;7.146;2023-06-04T07:15:42;16.10;86.20
5226;DHT22;2632;51.666;7.146;2023-06-04T07:18:08;16.20;84.90
5226;DHT22;2632;51.666;7.146;2023-06-04T07:20:36;16.20;84.60
5226;DHT22;2632;51.666;7.146;2023-06-04T07:23:02;16.40;85.10
5226;DHT22;2632;51.666;7.146;2023-06-04T07:25:29;16.40;86.80
5226;DHT22;2632;51.666;7.146;2023-06-04T07:27:56;16.60;82.30
5226;DHT22;2632;51.666;7.146;2023-06-04T07:30:26;17.00;81.10
5226;DHT22;2632;51.666;7.146;2023-06-04T07:32:52;17.50;79.60
5226;DHT22;2632;51.666;7.146;2023-06-04T07:35:19;18.20;79.30
5226;DHT22;2632;51.666;7.146;2023-06-04T07:37:46;19.30;80.10
5226;DHT22;2632;51.666;7.146;2023-06-04T07:40:16;20.30;71.40
5226;DHT22;2632;51.666;7.146;2023-06-04T07:42:44;20.90;70.10
5226;DHT22;2632;51.666;7.146;2023-06-04T07:45:11;21.00;73.30
5226;DHT22;2632;51.666;7.146;2023-06-04T07:47:42;20.40;67.70
5226;DHT22;2632;51.666;7.146;2023-06-04T07:50:10;20.30;73.60
5226;DHT22;2632;51.666;7.146;2023-06-04T07:52:36;20.40;68.10
5226;DHT22;2632;51.666;7.146;2023-06-04T07:55:04;20.60;66.70
5226;DHT22;2632;51.666;7.146;2023-06-04T07:57:31;21.00;66.90
5226;DHT22;2632;51.666;7.146;2023-06-04T07:59:58;21.50;70.30
5226;DHT22;2632;51.666;7.146;2023-06-04T08:02:25;21.70;68.50
5226;DHT22;2632;51.666;7.146;2023-06-04T08:04:55;22.60;67.30
5226;DHT22;2632;51.666;7.146;2023-06-04T08:07:22;22.60;64.80
5226;DHT22;2632;51.666;7.146;2023-06-04T08:09:49;22.60;64.90
5226;DHT22;2632;51.666;7.146;2023-06-04T08:12:16;21.50;63.80
5226;DHT22;2632;51.666;7.146;2023-06-04T08:14:46;21.10;64.60
5226;DHT22;2632;51.666;7.146;2023-06-04T08:17:16;21.00;61.30
5226;DHT22;2632;51.666;7.146;2023-06-04T08:19:42;20.90;62.40
5226;DHT22;2632;51.666;7.146;2023-06-04T08:22:09;20.90;63.30
5226;DHT22;2632;51.666;7.146;2023-06-04T08:24:37;21.20;62.00
5226;DHT22;2632;51.666;7.146;2023-06-04T08:27:04;21.40;61.10
5226;DHT22;2632;51.666;7.146;2023-06-04T08:29:31;21.60;63.60
5226;DHT22;2632;51.666;7.146;2023-06-04T08:31:58;21.60;62.90
5226;DHT22;2632;51.666;7.146;2023-06-04T08:34:24;21.80;62.20
5226;DHT22;2632;51.666;7.146;2023-06-04T08:36:51;21.90;62.20
5226;DHT22;2632;51.666;7.146;2023-06-04T08:39:18;22.00;62.20
5226;DHT22;2632;51.666;7.146;2023-06-04T08:41:49;22.10;59.90
5226;DHT22;2632;51.666;7.146;2023-06-04T08:44:18;22.20;61.00
5226;DHT22;2632;51.666;7.146;2023-06-04T08:46:45;22.40;58.90
5226;DHT22;2632;51.666;7.146;2023-06-04T08:49:13;22.60;58.20
5226;DHT22;2632;51.666;7.146;2023-06-04T08:51:41;22.60;59.00
5226;DHT22;2632;51.666;7.146;2023-06-04T08:54:09;23.00;58.20
5226;DHT22;2632;51.666;7.146;2023-06-04T08:56:36;23.10;57.40
5226;DHT22;2632;51.666;7.146;2023-06-04T08:59:04;22.90;56.20
5226;DHT22;2632;51.666;7.146;2023-06-04T09:01:33;23.30;56.40
5226;DHT22;2632;51.666;7.146;2023-06-04T09:04:03;23.10;55.20
5226;DHT22;2632;51.666;7.146;2023-06-04T09:06:32;23.10;55.90
5226;DHT22;2632;51.666;7.146;2023-06-04T09:09:02;23.50;57.20
5226;DHT22;2632;51.666;7.146;2023-06-04T09:11:35;23.40;56.70
5226;DHT22;2632;51.666;7.146;2023-06-04T09:14:06;23.50;54.30
5226;DHT22;2632;51.666;7.146;2023-06-04T09:16:46;23.60;56.80
5226;DHT22;2632;51.666;7.146;2023-06-04T09:19:14;23.80;56.00
5226;DHT22;2632;51.666;7.146;2023-06-04T09:21:52;23.90;55.30
5226;DHT22;2632;51.666;7.146;2023-06-04T09:24:20;23.80;54.10
5226;DHT22;2632;51.666;7.146;2023-06-04T09:26:48;23.80;53.50
5226;DHT22;2632;51.666;7.146;2023-06-04T09:29:15;23.80;53.40
5226;DHT22;2632;51.666;7.146;2023-06-04T09:31:58;24.10;54.50
5226;DHT22;2632;51.666;7.146;2023-06-04T09:34:28;24.00;54.10
5226;DHT22;2632;51.666;7.146;2023-06-04T09:36:55;24.30;54.90
5226;DHT22;2632;51.666;7.146;2023-06-04T09:39:23;24.30;53.40
5226;DHT22;2632;51.666;7.146;2023-06-04T09:42:00;24.40;53.90
5226;DHT22;2632;51.666;7.146;2023-06-04T09:44:28;24.60;53.40
5226;DHT22;2632;51.666;7.146;2023-06-04T09:46:58;24.90;52.30
5226;DHT22;2632;51.666;7.146;2023-06-04T09:49:25;25.60;50.90
5226;DHT22;2632;51.666;7.146;2023-06-04T09:51:52;25.70;50.30
5226;DHT22;2632;51.666;7.146;2023-06-04T09:54:19;26.00;49.30
5226;DHT22;2632;51.666;7.146;2023-06-04T09:56:45;25.30;49.00
5226;DHT22;2632;51.666;7.146;2023-06-04T09:59:13;25.40;49.60
5226;DHT22;2632;51.666;7.146;2023-06-04T10:01:41;24.90;49.50
5226;DHT22;2632;51.666;7.146;2023-06-04T10:04:13;24.90;49.10
5226;DHT22;2632;51.666;7.146;2023-06-04T10:06:41;24.90;50.30
5226;DHT22;2632;51.666;7.146;2023-06-04T10:09:08;24.90;50.80
5226;DHT22;2632;51.666;7.146;2023-06-04T10:11:40;25.20;47.50
5226;DHT22;2632;51.666;7.146;2023-06-04T10:16:42;25.40;47.90
5226;DHT22;2632;51.666;7.146;2023-06-04T10:19:09;25.40;45.30
5226;DHT22;2632;51.666;7.146;2023-06-04T10:21:36;25.60;46.90
5226;DHT22;2632;51.666;7.146;2023-06-04T10:24:04;25.30;46.20
5226;DHT22;2632;51.666;7.146;2023-06-04T10:26:33;25.40;47.10
5226;DHT22;2632;51.666;7.146;2023-06-04T10:29:01;25.70;46.30
5226;DHT22;2632;51.666;7.146;2023-06-04T10:31:29;25.80;46.60
5226;DHT22;2632;51.666;7.146;2023-06-04T10:33:56;25.90;47.40
5226;DHT22;2632;51.666;7.146;2023-06-04T10:36:24;25.60;48.30
5226;DHT22;2632;51.666;7.146;2023-06-04T10:38:53;25.80;47.20
5226;DHT22;2632;51.666;7.146;2023-06-04T10:41:22;25.90;48.30
5226;DHT22;2632;51.666;7.146;2023-06-04T10:43:51;26.30;46.50
5226;DHT22;2632;51.666;7.146;2023-06-04T10:46:20;26.00;48.10
5226;DHT22;2632;51.666;7.146;2023-06-04T10:48:51;25.90;47.80
5226;DHT22;2632;51.666;7.146;2023-06-04T10:51:34;26.10;47.10
5226;DHT22;2632;51.666;7.146;2023-06-04T10:54:02;26.50;48.20
5226;DHT22;2632;51.666;7.146;2023-06-04T10:56:31;26.50;50.90
5226;DHT22;2632;51.666;7.146;2023-06-04T10:59:17;26.40;51.40
5226;DHT22;2632;51.666;7.146;2023-06-04T11:01:45;26.50;52.90
5226;DHT22;2632;51.666;7.146;2023-06-04T11:04:25;26.50;47.40
5226;DHT22;2632;51.666;7.146;2023-06-04T11:07:01;26.60;46.50
5226;DHT22;2632;51.666;7.146;2023-06-04T11:09:31;26.60;44.30
5226;DHT22;2632;51.666;7.146;2023-06-04T11:12:00;26.50;47.70
5226;DHT22;2632;51.666;7.146;2023-06-04T11:14:27;26.80;46.30
5226;DHT22;2632;51.666;7.146;2023-06-04T11:16:54;27.10;46.80
5226;DHT22;2632;51.666;7.146;2023-06-04T11:19:21;27.20;49.00
5226;DHT22;2632;51.666;7.146;2023-06-04T11:21:49;26.90;46.60
5226;DHT22;2632;51.666;7.146;2023-06-04T11:24:16;26.90;45.10
5226;DHT22;2632;51.666;7.146;2023-06-04T11:26:43;26.60;45.60
5226;DHT22;2632;51.666;7.146;2023-06-04T11:29:26;26.60;46.50
5226;DHT22;2632;51.666;7.146;2023-06-04T11:31:52;26.90;47.60
5226;DHT22;2632;51.666;7.146;2023-06-04T11:34:29;26.70;45.50
5226;DHT22;2632;51.666;7.146;2023-06-04T11:36:56;26.70;44.60
5226;DHT22;2632;51.666;7.146;2023-06-04T11:39:35;26.60;44.90
5226;DHT22;2632;51.666;7.146;2023-06-04T11:42:05;26.70;48.70
5226;DHT22;2632;51.666;7.146;2023-06-04T11:44:33;26.60;45.60
5226;DHT22;2632;51.666;7.146;2023-06-04T11:47:00;26.90;45.00
5226;DHT22;2632;51.666;7.146;2023-06-04T11:49:27;27.00;47.70
5226;DHT22;2632;51.666;7.146;2023-06-04T11:51:54;26.80;46.60
5226;DHT22;2632;51.666;7.146;2023-06-04T11:54:21;27.20;47.80
5226;DHT22;2632;51.666;7.146;2023-06-04T11:56:50;27.20;47.90
5226;DHT22;2632;51.666;7.146;2023-06-04T11:59:18;27.30;47.30
5226;DHT22;2632;51.666;7.146;2023-06-04T12:01:46;27.40;45.20
5226;DHT22;2632;51.666;7.146;2023-06-04T12:04:16;27.30;45.00
5226;DHT22;2632;51.666;7.146;2023-06-04T12:06:53;27.40;44.10
5226;DHT22;2632;51.666;7.146;2023-06-04T12:09:25;27.40;45.90
5226;DHT22;2632;51.666;7.146;2023-06-04T12:11:59;27.30;47.30
5226;DHT22;2632;51.666;7.146;2023-06-04T12:14:29;27.50;46.40
5226;DHT22;2632;51.666;7.146;2023-06-04T12:17:09;27.40;44.80
5226;DHT22;2632;51.666;7.146;2023-06-04T12:19:50;27.60;44.10
5226;DHT22;2632;51.666;7.146;2023-06-04T12:22:17;27.60;45.80
5226;DHT22;2632;51.666;7.146;2023-06-04T12:24:51;27.50;45.90
5226;DHT22;2632;51.666;7.146;2023-06-04T12:27:22;27.20;44.40
5226;DHT22;2632;51.666;7.146;2023-06-04T12:30:06;28.50;46.40
5226;DHT22;2632;51.666;7.146;2023-06-04T12:32:36;28.80;43.80
5226;DHT22;2632;51.666;7.146;2023-06-04T12:35:03;28.60;43.80
5226;DHT22;2632;51.666;7.146;2023-06-04T12:37:30;28.10;45.00
5226;DHT22;2632;51.666;7.146;2023-06-04T12:39:57;27.90;45.50
5226;DHT22;2632;51.666;7.146;2023-06-04T12:42:24;27.80;45.20
5226;DHT22;2632;51.666;7.146;2023-06-04T12:44:50;27.70;45.90
5226;DHT22;2632;51.666;7.146;2023-06-04T12:47:17;27.60;46.00
5226;DHT22;2632;51.666;7.146;2023-06-04T12:49:45;27.50;45.20
5226;DHT22;2632;51.666;7.146;2023-06-04T12:52:11;27.80;46.90
5226;DHT22;2632;51.666;7.146;2023-06-04T12:54:41;27.50;44.10
5226;DHT22;2632;51.666;7.146;2023-06-04T12:57:08;27.80;46.70
5226;DHT22;2632;51.666;7.146;2023-06-04T12:59:35;28.60;46.90
5226;DHT22;2632;51.666;7.146;2023-06-04T13:02:01;29.90;44.90
5226;DHT22;2632;51.666;7.146;2023-06-04T13:04:28;31.10;43.70
5226;DHT22;2632;51.666;7.146;2023-06-04T13:06:56;30.80;39.70
5226;DHT22;2632;51.666;7.146;2023-06-04T13:09:26;29.70;41.80
5226;DHT22;2632;51.666;7.146;2023-06-04T13:11:54;29.40;43.70
5226;DHT22;2632;51.666;7.146;2023-06-04T13:14:21;29.30;43.80
5226;DHT22;2632;51.666;7.146;2023-06-04T13:16:48;28.90;43.90
5226;DHT22;2632;51.666;7.146;2023-06-04T13:19:15;28.40;43.80
5226;DHT22;2632;51.666;7.146;2023-06-04T13:21:42;28.30;44.30
5226;DHT22;2632;51.666;7.146;2023-06-04T13:24:10;28.30;45.20
5226;DHT22;2632;51.666;7.146;2023-06-04T13:26:37;28.30;45.60
5226;DHT22;2632;51.666;7.146;2023-06-04T13:29:05;28.10;43.90
5226;DHT22;2632;51.666;7.146;2023-06-04T13:31:32;27.80;43.70
5226;DHT22;2632;51.666;7.146;2023-06-04T13:33:58;28.10;44.80
5226;DHT22;2632;51.666;7.146;2023-06-04T13:36:31;27.90;45.30
5226;DHT22;2632;51.666;7.146;2023-06-04T13:38:58;28.00;46.00
5226;DHT22;2632;51.666;7.146;2023-06-04T13:41:25;28.20;45.80
5226;DHT22;2632;51.666;7.146;2023-06-04T13:43:52;28.30;43.80
5226;DHT22;2632;51.666;7.146;2023-06-04T13:46:19;28.40;44.90
5226;DHT22;2632;51.666;7.146;2023-06-04T13:48:46;28.40;44.00
5226;DHT22;2632;51.666;7.146;2023-06-04T13:51:12;28.20;43.70
5226;DHT22;2632;51.666;7.146;2023-06-04T13:53:39;28.20;44.60
5226;DHT22;2632;51.666;7.146;2023-06-04T13:56:06;28.30;45.30
5226;DHT22;2632;51.666;7.146;2023-06-04T13:58:32;28.40;45.10
5226;DHT22;2632;51.666;7.146;2023-06-04T14:00:59;28.40;46.00
5226;DHT22;2632;51.666;7.146;2023-06-04T14:03:26;28.20;44.80
5226;DHT22;2632;51.666;7.146;2023-06-04T14:05:53;28.20;46.20
5226;DHT22;2632;51.666;7.146;2023-06-04T14:08:19;28.20;44.20
5226;DHT22;2632;51.666;7.146;2023-06-04T14:10:46;28.10;44.50
5226;DHT22;2632;51.666;7.146;2023-06-04T14:13:12;27.90;44.70
5226;DHT22;2632;51.666;7.146;2023-06-04T14:15:39;28.00;44.60
5226;DHT22;2632;51.666;7.146;2023-06-04T14:18:06;27.80;44.80
5226;DHT22;2632;51.666;7.146;2023-06-04T14:20:34;27.90;44.70
5226;DHT22;2632;51.666;7.146;2023-06-04T14:23:01;27.90;44.80
5226;DHT22;2632;51.666;7.146;2023-06-04T14:25:27;27.80;44.50
5226;DHT22;2632;51.666;7.146;2023-06-04T14:27:54;28.30;45.30
5226;DHT22;2632;51.666;7.146;2023-06-04T14:30:21;28.20;45.20
5226;DHT22;2632;51.666;7.146;2023-06-04T14:32:48;27.90;44.60
5226;DHT22;2632;51.666;7.146;2023-06-04T14:35:14;27.90;45.80
5226;DHT22;2632;51.666;7.146;2023-06-04T14:37:41;28.00;45.60
5226;DHT22;2632;51.666;7.146;2023-06-04T14:40:08;27.80;44.10
5226;DHT22;2632;51.666;7.146;2023-06-04T14:42:35;27.60;44.20
5226;DHT22;2632;51.666;7.146;2023-06-04T14:45:02;27.40;43.90
5226;DHT22;2632;51.666;7.146;2023-06-04T14:47:29;27.40;45.70
5226;DHT22;2632;51.666;7.146;2023-06-04T14:49:56;27.60;46.10
5226;DHT22;2632;51.666;7.146;2023-06-04T14:52:22;27.60;46.90
5226;DHT22;2632;51.666;7.146;2023-06-04T14:54:49;27.60;45.20
5226;DHT22;2632;51.666;7.146;2023-06-04T14:57:18;27.50;44.80
5226;DHT22;2632;51.666;7.146;2023-06-04T14:59:48;27.40;46.30
5226;DHT22;2632;51.666;7.146;2023-06-04T15:02:14;27.40;45.90
5226;DHT22;2632;51.666;7.146;2023-06-04T15:04:46;27.30;46.00
5226;DHT22;2632;51.666;7.146;2023-06-04T15:07:13;27.30;45.10
5226;DHT22;2632;51.666;7.146;2023-06-04T15:09:39;27.20;45.70
5226;DHT22;2632;51.666;7.146;2023-06-04T15:12:06;27.20;44.20
5226;DHT22;2632;51.666;7.146;2023-06-04T15:14:33;27.00;46.30
5226;DHT22;2632;51.666;7.146;2023-06-04T15:16:59;27.20;46.40
5226;DHT22;2632;51.666;7.146;2023-06-04T15:19:26;27.30;47.70
5226;DHT22;2632;51.666;7.146;2023-06-04T15:21:53;27.30;47.30
5226;DHT22;2632;51.666;7.146;2023-06-04T15:24:20;27.40;46.60
5226;DHT22;2632;51.666;7.146;2023-06-04T15:26:48;27.10;47.00
5226;DHT22;2632;51.666;7.146;2023-06-04T15:29:15;27.00;45.70
5226;DHT22;2632;51.666;7.146;2023-06-04T15:31:42;26.90;46.60
5226;DHT22;2632;51.666;7.146;2023-06-04T15:34:08;26.90;47.10
5226;DHT22;2632;51.666;7.146;2023-06-04T15:36:35;26.70;47.00
5226;DHT22;2632;51.666;7.146;2023-06-04T15:39:04;26.60;46.90
5226;DHT22;2632;51.666;7.146;2023-06-04T15:41:31;26.80;47.50
5226;DHT22;2632;51.666;7.146;2023-06-04T15:43:58;26.60;47.20
5226;DHT22;2632;51.666;7.146;2023-06-04T15:46:28;26.30;46.40
5226;DHT22;2632;51.666;7.146;2023-06-04T15:48:55;26.20;47.90
5226;DHT22;2632;51.666;7.146;2023-06-04T15:51:22;26.20;47.10
5226;DHT22;2632;51.666;7.146;2023-06-04T15:53:49;26.20;47.20
5226;DHT22;2632;51.666;7.146;2023-06-04T15:56:15;26.10;47.90
5226;DHT22;2632;51.666;7.146;2023-06-04T15:58:43;26.00;47.20
5226;DHT22;2632;51.666;7.146;2023-06-04T16:01:10;25.90;47.50
5226;DHT22;2632;51.666;7.146;2023-06-04T16:03:37;26.00;47.20
5226;DHT22;2632;51.666;7.146;2023-06-04T16:06:03;25.80;48.50
5226;DHT22;2632;51.666;7.146;2023-06-04T16:08:30;25.80;49.50
5226;DHT22;2632;51.666;7.146;2023-06-04T16:10:57;25.70;49.80
5226;DHT22;2632;51.666;7.146;2023-06-04T16:13:23;25.70;50.00